createdAt,value
2018-04-18T00:00:18.211Z,3.73
2018-04-18T00:02:50.804Z,3.70
2018-04-18T00:05:23.427Z,3.33
2018-04-18T00:07:56.779Z,3.93
2018-04-18T00:10:29.386Z,3.30
2018-04-18T00:13:01.980Z,3.83
2018-04-18T00:15:34.615Z,4.13
2018-04-18T00:18:07.971Z,3.63
2018-04-18T00:20:40.589Z,3.70
2018-04-18T00:23:13.179Z,3.87
2018-04-18T00:25:45.816Z,4.03
2018-04-18T00:28:18.413Z,3.87
2018-04-18T00:30:51.043Z,4.00
2018-04-18T00:33:23.651Z,4.03
2018-04-18T00:35:56.263Z,4.77
2018-04-18T00:38:29.627Z,4.50
2018-04-18T00:41:02.276Z,4.70
2018-04-18T00:43:34.907Z,4.53
2018-04-18T00:46:07.549Z,4.73
2018-04-18T00:48:40.922Z,4.10
2018-04-18T00:51:13.564Z,4.93
2018-04-18T00:53:46.159Z,4.93
2018-04-18T00:56:18.789Z,4.40
2018-04-18T00:58:51.379Z,4.17
2018-04-18T01:01:24.006Z,3.80
2018-04-18T01:03:57.364Z,4.10
2018-04-18T01:06:30.008Z,4.00
2018-04-18T01:09:03.372Z,3.60
2018-04-18T01:11:36.017Z,4.20
2018-04-18T01:14:08.628Z,4.57
2018-04-18T01:16:41.247Z,4.73
2018-04-18T01:19:13.835Z,4.73
2018-04-18T01:21:46.466Z,4.97
2018-04-18T01:24:19.063Z,5.33
2018-04-18T01:26:52.475Z,4.37
2018-04-18T01:29:25.840Z,4.70
2018-04-18T01:31:58.460Z,4.20
2018-04-18T01:34:31.050Z,4.50
2018-04-18T01:37:03.683Z,4.80
2018-04-18T01:39:36.395Z,3.60
2018-04-18T01:42:09.038Z,4.00
2018-04-18T01:44:42.403Z,3.70
2018-04-18T01:47:15.009Z,3.97
2018-04-18T01:49:47.617Z,3.57
2018-04-18T01:52:20.243Z,3.37
2018-04-18T01:54:52.845Z,3.80
2018-04-18T01:57:25.541Z,4.23
2018-04-18T01:59:58.146Z,3.70
2018-04-18T02:02:30.776Z,4.30
2018-04-18T02:05:03.382Z,3.77
2018-04-18T02:07:36.793Z,4.10
2018-04-18T02:10:10.171Z,3.63
2018-04-18T02:12:42.821Z,4.17
2018-04-18T02:15:15.424Z,3.87
2018-04-18T02:17:48.051Z,3.80
2018-04-18T02:20:20.652Z,4.10
2018-04-18T02:22:53.300Z,3.50
2018-04-18T02:25:25.909Z,3.87
2018-04-18T02:27:58.533Z,3.60
2018-04-18T02:30:31.123Z,3.90
2018-04-18T02:33:03.759Z,4.07
2018-04-18T02:35:36.357Z,3.80
2018-04-18T02:38:08.980Z,3.50
2018-04-18T02:40:41.589Z,3.77
2018-04-18T02:43:14.209Z,3.33
2018-04-18T02:45:46.808Z,4.00
2018-04-18T02:48:19.440Z,4.47
2018-04-18T02:50:52.064Z,3.63
2018-04-18T02:53:25.448Z,4.43
2018-04-18T02:55:58.040Z,3.80
2018-04-18T02:58:30.676Z,3.80
2018-04-18T03:01:03.264Z,4.20
2018-04-18T03:03:35.896Z,4.07
2018-04-18T03:06:08.500Z,3.80
2018-04-18T03:08:41.128Z,3.97
2018-04-18T03:11:13.733Z,5.20
2018-04-18T03:13:46.357Z,4.40
2018-04-18T03:16:18.960Z,4.97
2018-04-18T03:18:52.568Z,5.17
2018-04-18T03:21:25.193Z,4.80
2018-04-18T03:23:57.829Z,4.97
2018-04-18T03:26:30.492Z,4.73
2018-04-18T03:29:03.076Z,4.70
2018-04-18T03:31:36.512Z,5.53
2018-04-18T03:34:09.136Z,4.57
2018-04-18T03:36:41.736Z,4.77
2018-04-18T03:39:14.380Z,5.53
2018-04-18T03:41:47.736Z,4.83
2018-04-18T03:44:20.371Z,5.10
2018-04-18T03:46:53.749Z,4.73
2018-04-18T03:49:26.383Z,5.67
2018-04-18T03:51:58.987Z,4.87
2018-04-18T03:54:31.629Z,5.30
2018-04-18T03:57:05.312Z,5.43
2018-04-18T03:59:37.936Z,5.33
2018-04-18T04:02:10.545Z,5.60
2018-04-18T04:04:43.954Z,5.10
2018-04-18T04:07:16.551Z,4.80
2018-04-18T04:09:49.959Z,5.27
2018-04-18T04:12:23.323Z,4.70
2018-04-18T04:14:55.944Z,4.80
2018-04-18T04:17:40.445Z,4.37
2018-04-18T04:20:25.753Z,4.70
2018-04-18T04:23:10.303Z,4.30
2018-04-18T04:25:42.937Z,4.73
2018-04-18T04:28:15.545Z,5.10
2018-04-18T04:30:48.164Z,5.10
2018-04-18T04:33:22.271Z,4.63
2018-04-18T04:35:54.897Z,4.30
2018-04-18T04:38:27.500Z,4.23
2018-04-18T04:41:00.120Z,4.20
2018-04-18T04:43:32.731Z,4.60
2018-04-18T04:46:05.357Z,4.83
2018-04-18T04:48:38.723Z,4.87
2018-04-18T04:51:11.363Z,4.30
2018-04-18T04:53:44.732Z,8.10
2018-04-18T04:56:17.380Z,9.87
2018-04-18T04:58:49.981Z,7.37
2018-04-18T05:01:22.658Z,7.17
2018-04-18T05:03:55.232Z,9.67
2018-04-18T05:06:28.624Z,8.17
2018-04-18T05:09:01.233Z,8.80
2018-04-18T05:11:34.616Z,9.57
2018-04-18T05:14:07.224Z,9.67
2018-04-18T05:16:40.648Z,10.23
2018-04-18T05:19:14.017Z,9.47
2018-04-18T05:21:46.658Z,9.00
2018-04-18T05:24:20.037Z,9.23
2018-04-18T05:26:52.691Z,9.07
2018-04-18T05:29:25.344Z,9.20
2018-04-18T05:31:57.923Z,9.60
2018-04-18T05:34:30.521Z,8.47
2018-04-18T05:37:03.900Z,9.03
2018-04-18T05:39:36.510Z,9.03
2018-04-18T05:42:09.156Z,8.87
2018-04-18T05:44:41.752Z,8.83
2018-04-18T05:47:14.414Z,9.00
2018-04-18T05:49:47.013Z,8.63
2018-04-18T05:52:19.636Z,8.57
2018-04-18T05:54:52.277Z,8.77
2018-04-18T05:57:24.885Z,8.97
2018-04-18T05:59:57.493Z,9.43
2018-04-18T06:02:30.116Z,9.20
2018-04-18T06:05:02.726Z,9.87
2018-04-18T06:07:35.380Z,9.10
2018-04-18T06:10:07.983Z,8.90
2018-04-18T06:12:40.628Z,9.73
2018-04-18T06:15:13.231Z,9.87
2018-04-18T06:17:45.848Z,9.77
2018-04-18T06:20:18.450Z,9.60
2018-04-18T06:22:51.071Z,9.67
2018-04-18T06:25:23.678Z,9.90
2018-04-18T06:27:57.076Z,9.97
2018-04-18T06:30:30.439Z,9.90
2018-04-18T06:33:03.085Z,9.93
2018-04-18T06:35:36.455Z,10.10
2018-04-18T06:38:09.102Z,9.77
2018-04-18T06:40:41.713Z,9.87
2018-04-18T06:43:14.341Z,10.20
2018-04-18T06:45:46.950Z,10.03
2018-04-18T06:48:20.339Z,9.97
2018-04-18T06:50:52.944Z,11.00
2018-04-18T06:53:25.564Z,9.97
2018-04-18T06:55:58.173Z,10.90
2018-04-18T06:58:30.805Z,11.30
2018-04-18T07:01:03.408Z,10.93
2018-04-18T07:03:36.033Z,10.23
2018-04-18T07:06:08.645Z,10.73
2018-04-18T07:08:41.292Z,10.77
2018-04-18T07:11:14.673Z,10.67
2018-04-18T07:13:47.333Z,9.50
2018-04-18T07:16:19.954Z,10.63
2018-04-18T07:18:52.599Z,10.57
2018-04-18T07:21:25.229Z,10.70
2018-04-18T07:23:57.887Z,10.73
2018-04-18T07:26:30.506Z,10.57
2018-04-18T07:29:03.137Z,11.83
2018-04-18T07:31:35.750Z,11.57
2018-04-18T07:34:09.157Z,12.10
2018-04-18T07:36:56.515Z,12.10
2018-04-18T07:39:29.146Z,10.80
2018-04-18T07:42:01.761Z,10.47
2018-04-18T07:44:34.405Z,11.80
2018-04-18T07:47:07.013Z,11.53
2018-04-18T07:49:39.644Z,12.27
2018-04-18T07:52:12.247Z,11.50
2018-04-18T07:54:45.631Z,12.57
2018-04-18T07:57:18.243Z,11.50
2018-04-18T07:59:51.656Z,11.87
2018-04-18T08:02:25.037Z,10.40
2018-04-18T08:04:57.664Z,10.50
2018-04-18T08:07:30.263Z,10.30
2018-04-18T08:10:02.892Z,11.50
2018-04-18T08:12:35.509Z,10.90
2018-04-18T08:15:08.137Z,11.10
2018-04-18T08:17:40.759Z,12.47
2018-04-18T08:20:13.416Z,12.13
2018-04-18T08:22:46.029Z,11.40
2018-04-18T08:25:18.652Z,11.30
2018-04-18T08:27:57.108Z,11.13
2018-04-18T08:30:30.536Z,12.03
2018-04-18T08:33:03.145Z,12.37
2018-04-18T08:35:35.798Z,11.77
2018-04-18T08:38:09.172Z,14.53
2018-04-18T08:40:41.818Z,14.50
2018-04-18T08:43:14.416Z,16.17
2018-04-18T08:45:47.055Z,13.80
2018-04-18T08:48:19.662Z,12.83
2018-04-18T08:50:52.297Z,13.50
2018-04-18T08:53:24.925Z,11.60
2018-04-18T08:55:57.546Z,14.30
2018-04-18T08:58:30.921Z,13.87
2018-04-18T09:01:03.543Z,13.23
2018-04-18T09:03:36.143Z,13.20
2018-04-18T09:06:09.532Z,13.20
2018-04-18T09:08:42.133Z,13.57
2018-04-18T09:11:15.552Z,13.73
2018-04-18T09:13:48.924Z,12.50
2018-04-18T09:16:21.550Z,12.67
2018-04-18T09:18:54.931Z,12.93
2018-04-18T09:21:27.583Z,13.23
2018-04-18T09:24:00.190Z,13.10
2018-04-18T09:26:32.820Z,12.63
2018-04-18T09:29:05.431Z,13.10
2018-04-18T09:31:38.840Z,13.20
2018-04-18T09:34:12.217Z,13.27
2018-04-18T09:36:44.880Z,12.53
2018-04-18T09:39:17.492Z,12.10
2018-04-18T09:41:50.116Z,14.70
2018-04-18T09:44:23.486Z,13.53
2018-04-18T09:46:56.112Z,13.77
2018-04-18T09:49:29.482Z,14.37
2018-04-18T09:52:02.112Z,13.90
2018-04-18T09:54:35.489Z,12.93
2018-04-18T09:57:08.137Z,11.67
2018-04-18T09:59:40.739Z,13.03
2018-04-18T10:02:18.225Z,11.17
2018-04-18T10:04:50.836Z,11.93
2018-04-18T10:07:23.462Z,12.43
2018-04-18T10:09:56.080Z,12.10
2018-04-18T10:12:28.720Z,12.43
2018-04-18T10:15:01.322Z,9.90
2018-04-18T10:17:33.965Z,11.13
2018-04-18T10:20:07.336Z,11.00
2018-04-18T10:22:39.984Z,11.97
2018-04-18T10:25:12.593Z,11.00
2018-04-18T10:27:45.235Z,11.93
2018-04-18T10:30:17.840Z,12.33
2018-04-18T10:32:51.238Z,12.67
2018-04-18T10:35:23.843Z,12.83
2018-04-18T10:37:57.239Z,12.83
2018-04-18T10:40:29.840Z,11.00
2018-04-18T10:43:03.264Z,10.10
2018-04-18T10:45:36.640Z,12.17
2018-04-18T10:48:09.288Z,12.60
2018-04-18T10:50:41.892Z,12.23
2018-04-18T10:53:14.541Z,13.43
2018-04-18T10:55:47.921Z,13.30
2018-04-18T10:58:20.552Z,13.13
2018-04-18T11:00:53.934Z,13.67
2018-04-18T11:03:26.580Z,12.87
2018-04-18T11:05:59.189Z,12.67
2018-04-18T11:08:31.833Z,13.13
2018-04-18T11:11:05.204Z,13.93
2018-04-18T11:13:37.861Z,12.67
2018-04-18T11:16:10.471Z,12.13
2018-04-18T11:18:43.132Z,12.33
2018-04-18T11:21:15.759Z,12.70
2018-04-18T11:23:48.385Z,13.73
2018-04-18T11:26:21.760Z,13.13
2018-04-18T11:28:54.383Z,13.17
2018-04-18T11:31:26.993Z,13.47
2018-04-18T11:33:59.649Z,14.40
2018-04-18T11:36:32.269Z,12.93
2018-04-18T11:39:05.679Z,12.40
2018-04-18T11:41:39.048Z,12.57
2018-04-18T11:44:11.703Z,13.77
2018-04-18T11:46:44.311Z,12.83
2018-04-18T11:49:16.932Z,11.97
2018-04-18T11:51:49.540Z,12.27
2018-04-18T11:54:22.174Z,12.40
2018-04-18T11:56:54.783Z,12.17
2018-04-18T11:59:27.440Z,12.20
2018-04-18T12:02:00.048Z,13.47
2018-04-18T12:04:32.677Z,16.00
2018-04-18T12:07:05.280Z,12.33
2018-04-18T12:09:37.924Z,12.23
2018-04-18T12:12:10.534Z,12.93
2018-04-18T12:14:43.177Z,12.50
2018-04-18T12:17:16.548Z,12.77
2018-04-18T12:19:49.202Z,12.10
2018-04-18T12:22:21.804Z,13.20
2018-04-18T12:24:54.429Z,15.63
2018-04-18T12:27:27.033Z,17.90
2018-04-18T12:29:59.664Z,25.87
2018-04-18T12:32:32.275Z,14.73
2018-04-18T12:35:04.934Z,25.63
2018-04-18T12:37:37.549Z,24.23
2018-04-18T12:40:10.193Z,11.63
2018-04-18T12:42:42.803Z,14.30
2018-04-18T12:45:16.228Z,12.57
2018-04-18T12:47:48.837Z,12.57
2018-04-18T12:50:21.463Z,98.37
2018-04-18T12:52:54.075Z,120.23
2018-04-18T12:55:27.464Z,152.50
2018-04-18T12:58:00.084Z,150.30
2018-04-18T13:00:33.473Z,43.53
2018-04-18T13:03:06.077Z,48.13
2018-04-18T13:05:39.475Z,23.47
2018-04-18T13:08:12.100Z,192.83
2018-04-18T13:10:44.766Z,178.20
2018-04-18T13:13:18.148Z,10.40
2018-04-18T13:15:50.792Z,8.77
2018-04-18T13:18:23.431Z,11.67
2018-04-18T13:20:56.057Z,8.53
2018-04-18T13:23:29.435Z,9.20
2018-04-18T13:26:02.085Z,7.90
2018-04-18T13:28:34.701Z,9.47
2018-04-18T13:31:07.779Z,14.53
2018-04-18T13:33:40.429Z,9.57
2018-04-18T13:36:13.066Z,9.70
2018-04-18T13:38:45.668Z,15.07
2018-04-18T13:41:18.312Z,14.20
2018-04-18T13:43:51.683Z,9.40
2018-04-18T13:46:24.299Z,9.60
2018-04-18T13:48:56.899Z,8.53
2018-04-18T13:51:29.547Z,12.20
2018-04-18T13:54:02.143Z,8.50
2018-04-18T13:56:34.784Z,7.83
2018-04-18T13:59:08.155Z,7.70
2018-04-18T14:01:40.808Z,68.53
2018-04-18T14:04:13.409Z,8.93
2018-04-18T14:06:46.026Z,9.00
2018-04-18T14:09:18.640Z,11.57
2018-04-18T14:11:51.269Z,28.10
2018-04-18T14:14:24.062Z,8.70
2018-04-18T14:16:56.727Z,85.03
2018-04-18T14:19:29.360Z,39.50
2018-04-18T14:22:01.984Z,11.23
2018-04-18T14:24:34.595Z,15.70
2018-04-18T14:27:07.244Z,10.50
2018-04-18T14:29:39.852Z,8.10
2018-04-18T14:32:12.471Z,8.57
2018-04-18T14:34:45.068Z,8.43
2018-04-18T14:37:17.720Z,120.80
2018-04-18T14:39:50.588Z,157.10
2018-04-18T14:42:24.007Z,31.90
2018-04-18T14:44:56.627Z,77.00
2018-04-18T14:47:29.271Z,9.17
2018-04-18T14:50:02.636Z,9.37
2018-04-18T14:52:35.262Z,8.50
2018-04-18T14:55:08.658Z,10.10
2018-04-18T14:57:49.487Z,10.00
2018-04-18T15:00:22.095Z,8.27
2018-04-18T15:02:54.746Z,7.33
2018-04-18T15:05:28.124Z,95.83
2018-04-18T15:08:00.754Z,45.50
2018-04-18T15:10:34.129Z,80.03
2018-04-18T15:13:06.757Z,164.67
2018-04-18T15:15:40.132Z,95.60
2018-04-18T15:18:13.569Z,74.23
2018-04-18T15:20:46.952Z,9.97
2018-04-18T15:23:19.600Z,15.13
2018-04-18T15:25:52.216Z,60.07
2018-04-18T15:28:25.003Z,94.40
2018-04-18T15:30:57.604Z,13.00
2018-04-18T15:33:30.254Z,9.83
2018-04-18T15:36:02.860Z,7.07
2018-04-18T15:38:35.577Z,8.03
2018-04-18T15:41:08.193Z,7.43
2018-04-18T15:43:40.833Z,8.37
2018-04-18T15:46:13.446Z,7.90
2018-04-18T15:48:46.089Z,8.20
2018-04-18T15:51:19.461Z,11.83
2018-04-18T15:53:52.102Z,10.00
2018-04-18T15:56:25.479Z,8.07
2018-04-18T15:58:58.125Z,7.80
2018-04-18T16:01:30.728Z,7.13
2018-04-18T16:04:03.376Z,79.90
2018-04-18T16:06:36.766Z,15.70
2018-04-18T16:09:09.430Z,24.67
2018-04-18T16:11:42.051Z,19.70
2018-04-18T16:14:14.707Z,15.10
2018-04-18T16:16:47.317Z,9.10
2018-04-18T16:19:19.948Z,7.47
2018-04-18T16:21:53.320Z,13.47
2018-04-18T16:24:25.957Z,9.37
2018-04-18T16:26:59.328Z,12.60
2018-04-18T16:29:40.637Z,15.67
2018-04-18T16:32:13.265Z,21.13
2018-04-18T16:34:45.888Z,30.23
2018-04-18T16:37:18.527Z,27.50
2018-04-18T16:39:51.928Z,15.10
2018-04-18T16:42:25.311Z,27.77
2018-04-18T16:44:57.936Z,18.80
2018-04-18T16:47:31.309Z,25.23
2018-04-18T16:50:03.961Z,18.00
2018-04-18T16:52:36.569Z,15.77
2018-04-18T16:55:09.223Z,14.73
2018-04-18T16:57:41.836Z,13.60
2018-04-18T17:00:14.486Z,14.90
2018-04-18T17:02:47.878Z,15.03
2018-04-18T17:05:20.508Z,24.23
2018-04-18T17:07:53.885Z,17.17
2018-04-18T17:10:26.538Z,13.43
2018-04-18T17:12:59.139Z,12.63
2018-04-18T17:15:31.776Z,13.30
2018-04-18T17:18:05.146Z,9.07
2018-04-18T17:20:37.792Z,11.20
2018-04-18T17:23:11.169Z,10.40
2018-04-18T17:25:43.814Z,9.33
2018-04-18T17:28:16.429Z,13.20
2018-04-18T17:30:49.080Z,25.53
2018-04-18T17:33:21.683Z,21.37
2018-04-18T17:35:54.299Z,9.10
2018-04-18T17:38:26.905Z,8.77
2018-04-18T17:40:59.587Z,14.27
2018-04-18T17:43:32.177Z,16.87
2018-04-18T17:46:04.810Z,22.57
2018-04-18T17:48:38.224Z,11.90
2018-04-18T17:51:10.863Z,9.50
2018-04-18T17:53:43.470Z,11.67
2018-04-18T17:56:16.170Z,12.33
2018-04-18T17:58:48.781Z,12.53
2018-04-18T18:01:22.171Z,9.30
2018-04-18T18:03:54.775Z,7.33
2018-04-18T18:06:27.487Z,8.40
2018-04-18T18:09:00.045Z,9.33
2018-04-18T18:11:32.686Z,10.90
2018-04-18T18:14:05.292Z,9.90
2018-04-18T18:16:37.928Z,8.57
2018-04-18T18:19:10.527Z,9.03
2018-04-18T18:21:43.177Z,8.73
2018-04-18T18:24:15.779Z,47.83
2018-04-18T18:26:48.416Z,63.17
2018-04-18T18:29:28.130Z,82.03
2018-04-18T18:32:00.773Z,76.17
2018-04-18T18:34:34.147Z,59.40
2018-04-18T18:37:06.798Z,54.00
2018-04-18T18:39:39.447Z,42.80
2018-04-18T18:42:12.097Z,32.23
2018-04-18T18:44:44.716Z,27.33
2018-04-18T18:47:17.341Z,25.50
2018-04-18T18:49:50.745Z,53.50
2018-04-18T18:52:24.160Z,167.10
2018-04-18T18:54:57.549Z,137.50
2018-04-18T18:57:30.185Z,113.27
2018-04-18T19:00:04.797Z,98.87
2018-04-18T19:02:39.152Z,53.87
2018-04-18T19:05:12.046Z,41.77
2018-04-18T19:07:45.036Z,36.87
2018-04-18T19:10:18.047Z,18.33
2018-04-18T19:13:02.383Z,16.37
2018-04-18T19:15:35.224Z,6.97
2018-04-18T19:18:08.179Z,11.17
2018-04-18T19:20:41.009Z,12.30
2018-04-18T19:23:14.910Z,8.57
2018-04-18T19:25:47.778Z,10.57
2018-04-18T19:28:20.621Z,8.97
2018-04-18T19:30:54.229Z,8.90
2018-04-18T19:33:27.053Z,9.23
2018-04-18T19:35:59.860Z,10.17
2018-04-18T19:38:32.736Z,9.70
2018-04-18T19:41:06.104Z,10.73
2018-04-18T19:43:38.918Z,11.33
2018-04-18T19:46:11.722Z,9.30
2018-04-18T19:48:45.401Z,10.53
2018-04-18T19:51:18.978Z,20.90
2018-04-18T19:53:51.827Z,50.00
2018-04-18T19:56:25.002Z,37.43
2018-04-18T19:58:57.915Z,29.10
2018-04-18T20:01:30.699Z,25.27
2018-04-18T20:04:03.550Z,26.67
2018-04-18T20:06:36.372Z,26.03
2018-04-18T20:09:09.734Z,23.03
2018-04-18T20:11:42.491Z,17.43
2018-04-18T20:14:15.297Z,16.83
2018-04-18T20:16:48.076Z,16.27
2018-04-18T20:19:21.120Z,17.63
2018-04-18T20:21:54.684Z,14.73
2018-04-18T20:24:27.571Z,12.43
2018-04-18T20:27:00.466Z,11.63
2018-04-18T20:29:33.299Z,11.10
2018-04-18T20:32:06.154Z,9.77
2018-04-18T20:34:38.914Z,9.50
2018-04-18T20:37:12.749Z,8.90
2018-04-18T20:39:45.591Z,8.87
2018-04-18T20:42:18.413Z,8.20
2018-04-18T20:44:52.123Z,9.50
2018-04-18T20:47:24.893Z,8.47
2018-04-18T20:49:57.628Z,7.97
2018-04-18T20:52:30.496Z,8.07
2018-04-18T20:55:03.498Z,8.37
2018-04-18T20:57:36.761Z,8.50
2018-04-18T21:00:10.032Z,8.67
2018-04-18T21:02:43.185Z,8.03
2018-04-18T21:05:16.419Z,8.23
2018-04-18T21:07:49.243Z,8.80
2018-04-18T21:10:22.169Z,9.53
2018-04-18T21:12:54.977Z,8.87
2018-04-18T21:15:27.750Z,9.73
2018-04-18T21:18:01.360Z,9.20
2018-04-18T21:20:34.195Z,8.27
2018-04-18T21:23:07.010Z,7.77
2018-04-18T21:25:39.919Z,8.83
2018-04-18T21:28:12.659Z,8.03
2018-04-18T21:30:45.453Z,8.07
2018-04-18T21:33:18.255Z,8.40
2018-04-18T21:35:51.067Z,8.37
2018-04-18T21:38:24.882Z,11.30
2018-04-18T21:40:57.779Z,11.57
2018-04-18T21:43:30.564Z,10.97
2018-04-18T21:46:03.423Z,10.33
2018-04-18T21:48:36.306Z,11.57
2018-04-18T21:51:09.365Z,10.47
2018-04-18T21:53:42.126Z,9.13
2018-04-18T21:56:15.692Z,10.40
2018-04-18T21:58:48.493Z,8.47
2018-04-18T22:01:21.292Z,9.17
2018-04-18T22:03:54.092Z,9.63
2018-04-18T22:06:26.941Z,9.73
2018-04-18T22:08:59.750Z,8.57
2018-04-18T22:11:32.498Z,8.93
2018-04-18T22:14:05.269Z,8.53
2018-04-18T22:16:38.033Z,8.27
2018-04-18T22:19:10.801Z,8.73
2018-04-18T22:21:43.612Z,8.50
2018-04-18T22:24:17.140Z,8.90
2018-04-18T22:26:49.928Z,8.43
2018-04-18T22:29:22.670Z,8.60
2018-04-18T22:31:55.410Z,8.17
2018-04-18T22:34:28.162Z,8.17
2018-04-18T22:37:00.969Z,8.03
2018-04-18T22:39:33.808Z,8.67
2018-04-18T22:42:06.554Z,8.10
2018-04-18T22:44:39.295Z,7.57
2018-04-18T22:47:12.089Z,7.90
2018-04-18T22:49:44.843Z,7.10
2018-04-18T22:52:17.673Z,8.80
2018-04-18T22:54:50.394Z,8.40
2018-04-18T22:57:23.150Z,7.77
2018-04-18T22:59:55.911Z,8.87
2018-04-18T23:02:28.676Z,8.50
2018-04-18T23:05:01.473Z,9.70
2018-04-18T23:07:34.273Z,10.40
2018-04-18T23:10:07.017Z,9.17
2018-04-18T23:12:40.544Z,8.60
2018-04-18T23:15:14.042Z,8.30
2018-04-18T23:17:47.632Z,8.60
2018-04-18T23:20:20.449Z,8.70
2018-04-18T23:22:53.244Z,7.80
2018-04-18T23:25:26.767Z,9.20
2018-04-18T23:28:00.324Z,8.77
2018-04-18T23:30:33.092Z,8.70
2018-04-18T23:33:05.870Z,9.33
2018-04-18T23:35:38.648Z,9.57
2018-04-18T23:38:12.212Z,8.73
2018-04-18T23:40:44.985Z,8.30
2018-04-18T23:43:17.869Z,8.30
2018-04-18T23:45:51.332Z,8.63
2018-04-18T23:48:24.162Z,8.07
2018-04-18T23:50:57.707Z,8.43
2018-04-18T23:53:30.504Z,8.70
2018-04-18T23:56:03.285Z,9.53
2018-04-18T23:58:36.835Z,9.33
